Data for 05/16/2017

Time Sea-Level Adjusted Pressure Absolute Pressure Temperature Relative Humidity Dew Point   
(mb) (inHg) (mb) (inHg) (C) (F) (%) (C) (F)
00:05 1012 29.88 841 24.83 4.6 40.3 83 2 35.5
00:10 1012 29.88 841 24.83 4.7 40.4 83 2 35.6
00:15 1012 29.88 841 24.83 4.6 40.3 83 2 35.6
00:20 1012 29.88 841 24.83 4.6 40.3 82 1.9 35.3
00:25 1012 29.88 841 24.83 4.6 40.2 83 1.9 35.5
00:30 1012 29.88 841 24.83 4.5 40 83 1.8 35.3
00:35 1012 29.88 841 24.83 4.4 39.9 83 1.7 35.1
00:40 1012 29.88 841 24.83 4.4 39.9 82 1.7 35
00:45 1012 29.88 841 24.83 4.3 39.8 82 1.6 34.9
00:50 1012 29.88 841 24.83 4.2 39.6 83 1.5 34.8
00:55 1011 29.85 841 24.83 4 39.2 83 1.4 34.5
01:00 1011 29.85 841 24.83 3.9 39 83 1.3 34.3
01:05 1011 29.85 841 24.83 3.8 38.9 83 1.2 34.1
01:10 1011 29.85 840 24.81 3.9 39 83 1.2 34.1
01:15 1011 29.85 840 24.81 3.9 39.1 81 1 33.8
01:20 1011 29.85 840 24.81 4 39.2 82 1.1 34.1
01:25 1011 29.85 840 24.81 3.8 38.9 82 1.1 33.9
01:30 1011 29.85 840 24.81 3.8 38.9 82 1 33.8
01:35 1011 29.85 840 24.81 3.8 38.8 82 1.1 33.9
01:40 1011 29.85 840 24.81 3.8 38.8 82 0.9 33.6
01:45 1011 29.85 840 24.81 3.8 38.8 81 0.9 33.6
01:50 1011 29.85 840 24.81 3.6 38.4 82 0.8 33.5
01:55 1011 29.85 840 24.81 3.5 38.2 82 0.7 33.3
02:00 1011 29.85 840 24.81 3.6 38.6 81 0.7 33.2
02:05 1011 29.85 840 24.81 3.8 38.9 80 0.6 33.2
02:10 1011 29.85 840 24.81 4 39.1 80 0.7 33.3
02:15 1011 29.85 840 24.81 3.9 39.1 79 0.6 33.2
02:20 1011 29.85 840 24.81 4 39.2 78 0.5 33
02:25 1011 29.85 840 24.81 4.1 39.3 79 0.7 33.2
02:30 1011 29.85 840 24.81 4 39.2 79 0.7 33.2
02:35 1011 29.85 840 24.81 3.9 39 79 0.6 33.2
02:40 1011 29.85 840 24.81 3.7 38.6 81 0.7 33.3
02:45 1011 29.85 840 24.81 3.4 38.2 82 0.6 33.1
02:50 1011 29.85 840 24.81 3.3 38 82 0.6 33
02:55 1011 29.85 840 24.81 3.3 38 82 0.5 32.9
03:00 1011 29.85 840 24.81 3.2 37.7 83 0.6 33.1
03:05 1011 29.85 840 24.81 2.9 37.2 84 0.5 32.9
03:10 1011 29.85 840 24.81 2.8 37.1 84 0.3 32.6
03:15 1011 29.85 840 24.81 2.9 37.3 83 0.3 32.6
03:20 1011 29.85 840 24.81 3 37.3 82 0.2 32.4
03:25 1011 29.85 840 24.81 2.9 37.2 82 0.1 32.2
03:30 1011 29.85 840 24.81 2.8 37.1 82 0.1 32.1
03:35 1011 29.85 840 24.81 2.6 36.8 83 0.1 32.1
03:40 1010 29.83 840 24.81 2.6 36.6 83 0 32
03:45 1010 29.83 840 24.81 2.7 36.8 82 -0.1 31.9
03:50 1010 29.83 840 24.81 2.8 37.1 82 0.1 32.2
03:55 1010 29.83 839 24.78 2.6 36.8 84 0.1 32.2
04:00 1010 29.83 839 24.78 2.4 36.4 85 0.1 32.2
04:05 1010 29.83 839 24.78 2.2 36 86 0 32.1
04:10 1010 29.83 839 24.78 2.1 35.9 85 -0.1 31.9
04:15 1010 29.83 839 24.78 2 35.6 86 -0.1 31.8
04:20 1010 29.83 839 24.78 2.1 35.9 84 -0.2 31.6
04:25 1010 29.83 839 24.78 2.4 36.3 84 -0.1 31.9
04:30 1010 29.83 839 24.78 2.3 36.2 84 -0.1 31.8
04:35 1010 29.83 839 24.78 2.4 36.2 84 -0.1 31.8
04:40 1010 29.83 839 24.78 2.4 36.3 83 -0.2 31.7
04:45 1010 29.83 839 24.78 2.3 36.2 84 -0.1 31.9
04:50 1010 29.83 839 24.78 2.3 36.2 84 -0 32
04:55 1010 29.83 839 24.78 2.4 36.3 84 -0 32
05:00 1010 29.83 839 24.78 2.3 36.2 85 0 32
05:05 1010 29.83 839 24.78 2.2 36 85 0 32
05:10 1010 29.83 839 24.78 2.3 36.1 85 -0 32
05:15 1010 29.83 839 24.78 2.3 36.1 85 0 32
05:20 1010 29.83 839 24.78 2.2 36 85 -0 32
05:25 1010 29.83 839 24.78 2.4 36.2 84 -0.1 31.8
05:30 1010 29.83 839 24.78 2.4 36.3 84 -0 32
05:35 1010 29.83 839 24.78 2.4 36.3 84 -0 31.9
05:40 1010 29.83 839 24.78 2.5 36.5 83 -0 32
05:45 1010 29.83 839 24.78 2.6 36.8 83 0.1 32.2
05:50 1010 29.83 839 24.78 2.9 37.2 82 0.1 32.2
05:55 1010 29.83 839 24.78 2.9 37.2 81 -0.1 31.8
06:00 1009 29.8 839 24.78 3 37.4 81 -0 32
06:05 1009 29.8 839 24.78 3.1 37.6 80 -0 32
06:10 1009 29.8 839 24.78 3.2 37.7 80 0.1 32.2
06:15 1009 29.8 839 24.78 3.1 37.6 80 0 32.1
06:20 1009 29.8 839 24.78 3.1 37.6 81 0.1 32.1
06:25 1009 29.8 839 24.78 3.1 37.5 80 0 32
06:30 1009 29.8 839 24.78 3.1 37.5 81 0.1 32.1
06:35 1009 29.8 838 24.75 2.9 37.2 81 -0.1 31.8
06:40 1009 29.8 838 24.75 3 37.3 81 -0 31.9
06:45 1009 29.8 838 24.75 3.1 37.6 80 -0 31.9
06:50 1009 29.8 838 24.75 3.2 37.8 79 -0.1 31.9
06:55 1009 29.8 838 24.75 3.4 38.1 78 -0 32
07:00 1009 29.8 838 24.75 3.6 38.5 77 -0 32
07:05 1009 29.8 838 24.75 4.1 39.4 75 0.1 32.1
07:10 1009 29.8 838 24.75 4.4 39.9 75 0.4 32.7
07:15 1009 29.8 838 24.75 4.7 40.4 74 0.3 32.6
07:20 1009 29.8 838 24.75 4.7 40.5 74 0.4 32.8
07:25 1009 29.8 838 24.75 4.9 40.8 74 0.6 33.1
07:30 1009 29.8 838 24.75 5.1 41.2 72 0.4 32.8
07:35 1009 29.8 838 24.75 5.3 41.6 72 0.8 33.4
07:40 1009 29.8 838 24.75 5.3 41.6 73 0.9 33.6
07:45 1009 29.8 838 24.75 5.7 42.2 73 1.3 34.3
07:50 1009 29.8 838 24.75 5.8 42.5 72 1.3 34.3
07:55 1009 29.8 838 24.75 6.2 43.2 71 1.3 34.4
08:00 1009 29.8 838 24.75 6.7 44.1 68 1.2 34.1
08:05 1009 29.8 838 24.75 6.9 44.5 68 1.4 34.6
08:10 1009 29.8 838 24.75 7.1 44.7 66 1.1 34
08:15 1009 29.8 838 24.75 7.8 46 65 1.6 34.9
08:20 1009 29.8 838 24.75 8 46.4 64 1.6 34.8
08:25 1008 29.77 838 24.75 8.2 46.8 64 1.8 35.2
08:30 1008 29.77 838 24.75 8.7 47.6 62 1.8 35.2
08:35 1008 29.77 838 24.75 8 46.4 61 0.9 33.6
08:40 1008 29.77 838 24.75 8 46.3 63 1.5 34.7
08:45 1008 29.77 837 24.72 7.5 45.5 66 1.5 34.7
08:50 1008 29.77 837 24.72 7.5 45.6 64 1.3 34.3
08:55 1008 29.77 837 24.72 7.3 45.1 65 1.2 34.2
09:00 1008 29.77 837 24.72 7.6 45.6 64 1.1 34
09:05 1008 29.77 837 24.72 8.6 47.4 60 1.2 34.2
09:10 1008 29.77 837 24.72 9.2 48.5 59 1.7 35.1
09:15 1008 29.77 837 24.72 8.9 48.1 60 1.5 34.8
09:20 1008 29.77 837 24.72 8.7 47.7 59 1.1 34
09:25 1008 29.77 837 24.72 8.8 47.8 58 1.1 33.9
09:30 1008 29.77 837 24.72 9.2 48.6 60 1.8 35.3
09:35 1008 29.77 837 24.72 9.4 48.9 59 1.8 35.2
09:40 1008 29.77 837 24.72 9.9 49.8 55 1.3 34.4
09:45 1008 29.77 837 24.72 10.3 50.5 56 1.9 35.4
09:50 1008 29.77 837 24.72 10.8 51.4 53 1.6 34.8
09:55 1008 29.77 837 24.72 11.3 52.3 52 1.8 35.2
10:00 1008 29.77 837 24.72 11.7 53 50 1.5 34.8
10:05 1008 29.77 837 24.72 12.5 54.5 50 2.4 36.2
10:10 1007 29.74 837 24.72 11.8 53.3 49 1.6 34.9
10:15 1007 29.74 837 24.72 11.8 53.2 50 1.7 35
10:20 1007 29.74 837 24.72 12.2 53.9 48 1.5 34.7
10:25 1007 29.74 836 24.69 12.4 54.4 48 1.8 35.3
10:30 1007 29.74 836 24.69 12 53.5 48 1.3 34.3
10:35 1007 29.74 836 24.69 11.9 53.4 49 1.6 34.8
10:40 1007 29.74 836 24.69 12.5 54.5 44 0.6 33
10:45 1007 29.74 836 24.69 12.6 54.7 43 0.4 32.8
10:50 1007 29.74 836 24.69 12.3 54.2 45 0.7 33.2
10:55 1007 29.74 836 24.69 12.2 54 47 1.2 34.2
11:00 1007 29.74 836 24.69 12.9 55.1 48 2.1 35.7
11:05 1007 29.74 836 24.69 12.8 55 45 1.1 33.9
11:10 1007 29.74 836 24.69 13.3 55.9 44 1.4 34.5
11:15 1007 29.74 836 24.69 14.1 57.4 40 0.7 33.2
11:20 1007 29.74 836 24.69 13.9 57 39 0.3 32.6
11:25 1007 29.74 836 24.69 13.9 57.1 37 -0.3 31.4
11:30 1007 29.74 836 24.69 14.2 57.5 37 -0.3 31.4
11:35 1007 29.74 836 24.69 14.1 57.4 35 -1 30.2
11:40 1007 29.74 836 24.69 14.2 57.6 32 -2 28.4
11:45 1007 29.74 836 24.69 14 57.1 30 -3.3 26
11:50 1007 29.74 836 24.69 13.7 56.6 34 -1.6 29
11:55 1007 29.74 836 24.69 13.4 56.1 40 0.1 32.2
12:00 1007 29.74 836 24.69 13.3 55.9 40 0.2 32.3
12:05 1007 29.74 836 24.69 13.5 56.3 38 -0.3 31.4
12:10 1007 29.74 836 24.69 13.7 56.7 37 -0.7 30.8
12:15 1007 29.74 836 24.69 14 57.2 38 0.1 32.2
12:20 1007 29.74 836 24.69 14.1 57.4 38 0.3 32.5
12:25 1006 29.71 836 24.69 13.9 57 39 0.3 32.5
12:30 1006 29.71 836 24.69 13.9 57 32 -2.4 27.8
12:35 1006 29.71 836 24.69 13.8 56.8 32 -2.4 27.6
12:40 1006 29.71 836 24.69 14 57.2 33 -1.9 28.7
12:45 1006 29.71 836 24.69 14 57.3 33 -2 28.4
12:50 1006 29.71 836 24.69 13.8 56.8 34 -1.8 28.7
12:55 1006 29.71 836 24.69 13.9 57.1 32 -2.5 27.5
13:00 1006 29.71 835 24.66 13.6 56.5 33 -2.2 28.1
13:05 1006 29.71 835 24.66 13.8 56.9 31 -2.8 27
13:10 1006 29.71 835 24.66 14.2 57.5 30 -3.1 26.5
13:15 1006 29.71 835 24.66 13.9 56.9 28 -4.3 24.2
13:20 1006 29.71 835 24.66 13.6 56.5 29 -4.2 24.4
13:25 1006 29.71 835 24.66 13.9 56.9 27 -4.5 23.9
13:30 1006 29.71 835 24.66 14.5 58 26 -4.6 23.8
13:35 1006 29.71 835 24.66 15 58.9 25 -4.9 23.2
13:40 1006 29.71 835 24.66 14.2 57.6 23 -6.7 20
13:45 1006 29.71 835 24.66 14.8 58.6 26 -4.6 23.7
13:50 1006 29.71 835 24.66 15.1 59.1 19 -8.3 17.1
13:55 1006 29.71 835 24.66 14.8 58.7 19 -8.8 16.1
14:00 1006 29.71 835 24.66 14.4 57.9 19 -8.6 16.5
14:05 1006 29.71 835 24.66 14.4 57.9 19 -9 15.9
14:10 1006 29.71 835 24.66 14.3 57.8 20 -8.1 17.4
14:15 1005 29.68 835 24.66 14.5 58.2 19 -8.7 16.3
14:20 1005 29.68 835 24.66 14.8 58.6 20 -8.1 17.3
14:25 1005 29.68 835 24.66 14.9 58.8 19 -8.5 16.7
14:30 1005 29.68 835 24.66 14.1 57.4 22 -7.4 18.7
14:35 1005 29.68 834 24.63 13.8 56.8 23 -6.9 19.7
14:40 1005 29.68 834 24.63 14.2 57.5 20 -8.3 17.1
14:45 1005 29.68 834 24.63 14.7 58.5 19 -8.5 16.7
14:50 1005 29.68 834 24.63 15 58.9 19 -8.5 16.7
14:55 1005 29.68 834 24.63 14.8 58.6 19 -8.5 16.6
15:00 1005 29.68 834 24.63 14.7 58.4 20 -8 17.6
15:05 1005 29.68 834 24.63 14.6 58.2 20 -8.1 17.3
15:10 1005 29.68 834 24.63 14.4 58 20 -8.4 16.8
15:15 1005 29.68 834 24.63 15.4 59.7 18 -8.5 16.6
15:20 1005 29.68 834 24.63 16.1 61 18 -8.3 17
15:25 1005 29.68 834 24.63 16.6 61.8 17 -8.2 17.3
15:30 1005 29.68 834 24.63 15.8 60.4 18 -8.4 16.9
15:35 1005 29.68 834 24.63 15 59 19 -8.4 17
15:40 1005 29.68 834 24.63 15.3 59.6 19 -8.5 16.8
15:45 1005 29.68 834 24.63 15.6 60 18 -8.6 16.5
15:50 1005 29.68 834 24.63 15.7 60.2 18 -8.5 16.8
15:55 1005 29.68 834 24.63 15.5 59.8 19 -8.1 17.5
16:00 1005 29.68 834 24.63 15.2 59.3 18 -8.6 16.5
16:05 1005 29.68 834 24.63 15.3 59.5 20 -7.7 18.1
16:10 1005 29.68 834 24.63 14.8 58.6 27 -4 24.7
16:15 1005 29.68 834 24.63 13.7 56.6 31 -3 26.6
16:20 1005 29.68 834 24.63 13 55.4 35 -2 28.4
16:25 1005 29.68 835 24.66 12.7 54.8 38 -1.3 29.7
16:30 1005 29.68 835 24.66 12.3 54.1 38 -1.6 29.1
16:35 1006 29.71 835 24.66 11.9 53.4 39 -1.6 29.2
16:40 1006 29.71 835 24.66 12 53.5 40 -1.2 29.8
16:45 1005 29.68 835 24.66 12.1 53.7 39 -1.5 29.4
16:50 1005 29.68 835 24.66 12 53.5 39 -1.4 29.5
16:55 1005 29.68 835 24.66 12.2 53.9 39 -1.4 29.5
17:00 1005 29.68 835 24.66 12.5 54.4 39 -1 30.2
17:05 1005 29.68 835 24.66 12.6 54.6 39 -1 30.2
17:10 1005 29.68 834 24.63 12.4 54.3 39 -1.1 30.1
17:15 1005 29.68 834 24.63 12.3 54.2 39 -1 30.2
17:20 1005 29.68 834 24.63 12.3 54.1 41 -0.5 31.2
17:25 1005 29.68 834 24.63 12.1 53.7 41 -0.7 30.8
17:30 1005 29.68 834 24.63 11.9 53.3 41 -0.8 30.5
17:35 1005 29.68 834 24.63 11.8 53.2 41 -0.9 30.4
17:40 1005 29.68 834 24.63 11.9 53.4 41 -0.8 30.5
17:45 1005 29.68 834 24.63 11.7 53.1 41 -1.1 30
17:50 1005 29.68 834 24.63 11.5 52.7 41 -1.4 29.6
17:55 1005 29.68 834 24.63 11.5 52.7 41 -1.1 30
18:00 1005 29.68 834 24.63 11.6 52.9 42 -1 30.2
18:05 1005 29.68 834 24.63 11.6 52.8 41 -1.2 29.9
18:10 1005 29.68 834 24.63 11.5 52.8 42 -0.9 30.5
18:15 1005 29.68 834 24.63 11.6 52.8 42 -0.8 30.5
18:20 1005 29.68 834 24.63 11.7 53 41 -1 30.1
18:25 1005 29.68 834 24.63 11.9 53.3 41 -0.9 30.3
18:30 1005 29.68 834 24.63 11.9 53.4 41 -0.9 30.4
18:35 1005 29.68 834 24.63 12 53.6 39 -1.6 29.1
18:40 1005 29.68 834 24.63 12 53.5 39 -1.6 29.1
18:45 1005 29.68 834 24.63 11.5 52.7 43 -0.7 30.8
18:50 1005 29.68 834 24.63 10.8 51.4 44 -0.9 30.3
18:55 1005 29.68 834 24.63 10.6 51.1 44 -1 30.1
19:00 1005 29.68 834 24.63 10.9 51.6 43 -1.1 30.1
19:05 1005 29.68 834 24.63 11.1 52 42 -1.3 29.6
19:10 1005 29.68 834 24.63 11.1 52 41 -1.5 29.3
19:15 1005 29.68 834 24.63 11.3 52.3 41 -1.5 29.4
19:20 1005 29.68 834 24.63 11.3 52.4 41 -1.6 29.2
19:25 1005 29.68 834 24.63 11.3 52.3 41 -1.4 29.6
19:30 1005 29.68 834 24.63 11.3 52.4 42 -1.1 30
19:35 1005 29.68 834 24.63 11.4 52.5 41 -1.4 29.4
19:40 1005 29.68 834 24.63 11.5 52.7 41 -1.2 29.9
19:45 1005 29.68 834 24.63 11.5 52.6 42 -1.1 30.1
19:50 1005 29.68 834 24.63 11.3 52.3 41 -1.5 29.3
19:55 1005 29.68 834 24.63 11.1 51.9 42 -1.3 29.7
20:00 1004 29.65 834 24.63 10.9 51.7 43 -1.2 29.8
20:05 1004 29.65 834 24.63 10.8 51.4 44 -1.1 30.1
20:10 1004 29.65 834 24.63 10.8 51.4 44 -0.9 30.3
20:15 1004 29.65 834 24.63 10.7 51.2 43 -1.3 29.7
20:20 1004 29.65 833 24.6 10.7 51.3 44 -0.9 30.4
20:25 1004 29.65 833 24.6 10.7 51.3 42 -1.6 29.1
20:30 1004 29.65 833 24.6 10.7 51.2 42 -1.5 29.3
20:35 1004 29.65 833 24.6 10.8 51.4 38 -2.8 27
20:40 1004 29.65 833 24.6 11 51.8 37 -3 26.6
20:45 1004 29.65 833 24.6 11 51.8 38 -2.8 26.9
20:50 1004 29.65 833 24.6 10.9 51.7 38 -2.7 27.2
20:55 1004 29.65 833 24.6 10.7 51.2 43 -1.4 29.4
21:00 1004 29.65 833 24.6 10.3 50.6 46 -0.8 30.5
21:05 1004 29.65 833 24.6 10.1 50.1 48 -0.5 31.2
21:10 1004 29.65 833 24.6 9.9 49.9 49 -0.1 31.8
21:15 1004 29.65 833 24.6 9.9 49.9 46 -1.1 30
21:20 1004 29.65 833 24.6 10 50.1 48 -0.5 31
21:25 1004 29.65 833 24.6 9.9 49.9 48 -0.5 31
21:30 1004 29.65 833 24.6 9.9 49.7 49 -0.4 31.4
21:35 1004 29.65 833 24.6 9.8 49.7 48 -0.7 30.7
21:40 1004 29.65 833 24.6 9.9 49.7 47 -0.7 30.7
21:45 1004 29.65 833 24.6 9.8 49.6 47 -0.9 30.4
21:50 1004 29.65 833 24.6 9.8 49.6 47 -1.1 30.1
21:55 1004 29.65 833 24.6 9.7 49.5 48 -0.9 30.5
22:00 1004 29.65 833 24.6 9.6 49.2 49 -0.6 31
22:05 1004 29.65 833 24.6 9.4 48.9 50 -0.5 31.2
22:10 1004 29.65 833 24.6 9.3 48.7 50 -0.4 31.2
22:15 1004 29.65 833 24.6 9.2 48.6 51 -0.3 31.4
22:20 1004 29.65 833 24.6 9.2 48.5 52 -0.2 31.6
22:25 1004 29.65 833 24.6 9.1 48.4 51 -0.4 31.2
22:30 1004 29.65 833 24.6 9 48.3 52 -0.4 31.3
22:35 1004 29.65 833 24.6 9 48.2 52 -0.3 31.5
22:40 1004 29.65 833 24.6 8.9 48 52 -0.4 31.3
22:45 1004 29.65 833 24.6 8.9 48 52 -0.4 31.3
22:50 1004 29.65 833 24.6 8.9 48 52 -0.3 31.5
22:55 1004 29.65 833 24.6 8.8 47.8 54 -0 31.9
23:00 1004 29.65 833 24.6 8.7 47.7 55 0.1 32.2
23:05 1004 29.65 833 24.6 8.6 47.5 55 0.1 32.2
23:10 1003 29.62 833 24.6 8.6 47.4 55 0.2 32.3
23:15 1003 29.62 833 24.6 8.5 47.3 55 0.1 32.2
23:20 1003 29.62 833 24.6 8.5 47.4 56 0.2 32.4
23:25 1003 29.62 833 24.6 8.4 47.1 58 0.5 33
23:30 1003 29.62 833 24.6 8.2 46.8 58 0.5 32.9
23:35 1003 29.62 833 24.6 8.2 46.7 59 0.7 33.2
23:40 1003 29.62 833 24.6 8.1 46.6 58 0.4 32.8
23:45 1003 29.62 833 24.6 8.2 46.7 58 0.5 32.9
23:50 1003 29.62 832 24.57 8.2 46.8 57 0.2 32.3
23:55 1003 29.62 832 24.57 8.3 46.9 57 0.3 32.5
24:00 1003 29.62 832 24.57 8.3 46.9 57 0.2 32.4